createdAt,value
2019-01-31T00:01:54.912Z,69.13
2019-01-31T00:04:22.636Z,69.20
2019-01-31T00:06:50.277Z,69.34
2019-01-31T00:09:18.271Z,69.28
2019-01-31T00:11:45.907Z,69.20
2019-01-31T00:14:13.944Z,69.06
2019-01-31T00:16:41.978Z,69.46
2019-01-31T00:19:10.249Z,69.13
2019-01-31T00:21:38.214Z,69.40
2019-01-31T00:24:06.197Z,69.43
2019-01-31T00:26:34.153Z,69.52
2019-01-31T00:29:02.137Z,69.80
2019-01-31T00:31:30.113Z,69.40
2019-01-31T00:33:58.064Z,69.85
2019-01-31T00:36:26.035Z,69.63
2019-01-31T00:38:56.812Z,69.99
2019-01-31T00:41:23.016Z,69.53
2019-01-31T00:43:50.968Z,69.84
2019-01-31T00:46:18.935Z,69.99
2019-01-31T00:48:46.568Z,70.02
2019-01-31T00:51:14.480Z,69.96
2019-01-31T00:53:42.443Z,69.97
2019-01-31T00:56:10.407Z,69.97
2019-01-31T00:58:38.485Z,70.02
2019-01-31T01:01:06.457Z,70.37
2019-01-31T01:03:36.813Z,70.24
2019-01-31T01:06:04.131Z,70.24
2019-01-31T01:08:31.856Z,70.24
2019-01-31T01:10:59.760Z,70.20
2019-01-31T01:13:27.739Z,69.83
2019-01-31T01:15:55.717Z,70.19
2019-01-31T01:18:23.342Z,70.21
2019-01-31T01:20:50.989Z,70.09
2019-01-31T01:23:18.895Z,70.26
2019-01-31T01:25:46.530Z,70.14
2019-01-31T01:28:14.522Z,70.24
2019-01-31T01:30:42.490Z,70.37
2019-01-31T01:33:10.587Z,70.24
2019-01-31T01:35:38.538Z,70.36
2019-01-31T01:38:06.196Z,70.38
2019-01-31T01:40:33.842Z,70.27
2019-01-31T01:43:01.831Z,70.31
2019-01-31T01:45:29.473Z,70.27
2019-01-31T01:47:57.468Z,70.42
2019-01-31T01:50:25.436Z,70.45
2019-01-31T01:52:53.402Z,70.68
2019-01-31T01:55:21.061Z,70.87
2019-01-31T01:57:48.698Z,71.04
2019-01-31T02:00:16.700Z,70.88
2019-01-31T02:02:44.798Z,70.74
2019-01-31T02:05:12.759Z,70.95
2019-01-31T02:07:40.731Z,70.93
2019-01-31T02:10:08.678Z,70.99
2019-01-31T02:12:36.647Z,70.65
2019-01-31T02:15:04.621Z,70.75
2019-01-31T02:17:32.293Z,70.88
2019-01-31T02:20:00.361Z,70.97
2019-01-31T02:22:27.967Z,70.71
2019-01-31T02:24:55.875Z,70.92
2019-01-31T02:27:23.860Z,70.86
2019-01-31T02:29:51.828Z,70.93
2019-01-31T02:32:19.474Z,71.15
2019-01-31T02:34:47.361Z,71.22
2019-01-31T02:37:15.334Z,71.23
2019-01-31T02:39:43.559Z,71.26
2019-01-31T02:42:11.243Z,71.07
2019-01-31T02:44:39.392Z,71.29
2019-01-31T02:47:07.406Z,70.99
2019-01-31T02:49:35.371Z,70.94
2019-01-31T02:52:03.345Z,71.37
2019-01-31T02:54:30.989Z,71.33
2019-01-31T02:56:59.008Z,71.35
2019-01-31T02:59:26.944Z,71.22
2019-01-31T03:01:54.912Z,71.11
2019-01-31T03:04:22.885Z,70.81
2019-01-31T03:06:50.849Z,70.70
2019-01-31T03:09:18.827Z,70.70
2019-01-31T03:11:46.796Z,70.91
2019-01-31T03:14:14.449Z,70.86
2019-01-31T03:16:42.081Z,71.20
2019-01-31T03:19:10.006Z,71.34
2019-01-31T03:21:38.261Z,71.22
2019-01-31T03:24:06.251Z,71.46
2019-01-31T03:26:34.204Z,71.49
2019-01-31T03:29:01.865Z,71.80
2019-01-31T03:31:30.088Z,71.81
2019-01-31T03:33:58.219Z,71.90
2019-01-31T03:36:25.874Z,72.21
2019-01-31T03:38:53.851Z,72.07
2019-01-31T03:41:21.506Z,72.46
2019-01-31T03:43:49.479Z,72.12
2019-01-31T03:46:17.134Z,72.23
2019-01-31T03:48:45.120Z,72.17
2019-01-31T03:51:12.773Z,72.31
2019-01-31T03:53:40.421Z,72.99
2019-01-31T03:56:08.420Z,72.35
2019-01-31T03:58:36.081Z,72.88
2019-01-31T04:01:03.825Z,72.90
2019-01-31T04:03:32.592Z,72.95
2019-01-31T04:06:00.338Z,72.90
2019-01-31T04:08:28.257Z,73.00
2019-01-31T04:10:55.914Z,73.07
2019-01-31T04:13:23.543Z,73.21
2019-01-31T04:15:51.574Z,73.03
2019-01-31T04:18:19.236Z,72.90
2019-01-31T04:20:46.885Z,73.22
2019-01-31T04:23:14.841Z,73.25
2019-01-31T04:25:42.487Z,73.15
2019-01-31T04:28:10.489Z,73.13
2019-01-31T04:30:38.447Z,73.07
2019-01-31T04:33:06.092Z,73.20
2019-01-31T04:35:34.093Z,73.67
2019-01-31T04:38:02.043Z,73.80
2019-01-31T04:40:31.695Z,73.65
2019-01-31T04:42:59.943Z,73.83
2019-01-31T04:45:28.022Z,73.72
2019-01-31T04:47:56.546Z,73.71
2019-01-31T04:50:24.285Z,73.63
2019-01-31T04:52:52.217Z,74.14
2019-01-31T04:55:19.939Z,73.87
2019-01-31T04:57:47.945Z,74.09
2019-01-31T05:00:15.940Z,74.29
2019-01-31T05:02:43.625Z,74.10
2019-01-31T05:05:11.547Z,74.00
2019-01-31T05:07:39.519Z,73.98
2019-01-31T05:10:07.492Z,74.05
2019-01-31T05:12:35.455Z,74.12
2019-01-31T05:15:03.086Z,74.34
2019-01-31T05:17:30.992Z,74.41
2019-01-31T05:19:58.620Z,74.45
2019-01-31T05:22:26.627Z,74.04
2019-01-31T05:24:54.330Z,74.37
2019-01-31T05:27:21.972Z,74.23
2019-01-31T05:29:49.916Z,74.24
2019-01-31T05:32:17.550Z,74.44
2019-01-31T05:34:45.458Z,74.25
2019-01-31T05:37:13.084Z,74.32
2019-01-31T05:39:40.990Z,74.32
2019-01-31T05:42:08.941Z,74.70
2019-01-31T05:44:36.574Z,74.62
2019-01-31T05:47:04.212Z,74.45
2019-01-31T05:49:31.844Z,74.46
2019-01-31T05:51:59.862Z,74.87
2019-01-31T05:54:27.436Z,74.74
2019-01-31T05:56:55.071Z,74.89
2019-01-31T05:59:22.995Z,74.65
2019-01-31T06:01:50.962Z,74.57
2019-01-31T06:04:18.935Z,74.67
2019-01-31T06:06:46.585Z,74.68
2019-01-31T06:09:14.206Z,74.81
2019-01-31T06:11:42.131Z,74.61
2019-01-31T06:14:09.770Z,74.53
2019-01-31T06:16:37.755Z,74.99
2019-01-31T06:19:05.743Z,74.89
2019-01-31T06:21:33.376Z,75.00
2019-01-31T06:24:01.354Z,75.01
2019-01-31T06:26:28.984Z,75.08
2019-01-31T06:28:56.883Z,74.99
2019-01-31T06:31:24.853Z,74.52
2019-01-31T06:33:52.826Z,74.60
2019-01-31T06:36:20.795Z,74.86
2019-01-31T06:38:48.766Z,74.92
2019-01-31T06:41:18.782Z,75.05
2019-01-31T06:43:45.812Z,75.08
2019-01-31T06:46:13.692Z,75.26
2019-01-31T06:48:41.664Z,75.18
2019-01-31T06:51:09.354Z,75.21
2019-01-31T06:53:37.298Z,75.28
2019-01-31T06:56:04.930Z,75.45
2019-01-31T06:58:32.571Z,75.33
2019-01-31T07:01:00.487Z,75.46
2019-01-31T07:03:28.117Z,75.77
2019-01-31T07:05:56.018Z,75.73
2019-01-31T07:08:23.986Z,75.51
2019-01-31T07:10:51.957Z,75.45
2019-01-31T07:13:19.967Z,75.58
2019-01-31T07:15:47.895Z,75.35
2019-01-31T07:18:15.862Z,75.49
2019-01-31T07:20:43.483Z,75.42
2019-01-31T07:23:11.407Z,75.08
2019-01-31T07:25:39.025Z,75.34
2019-01-31T07:28:06.666Z,75.12
2019-01-31T07:30:34.589Z,75.19
2019-01-31T07:33:02.574Z,75.20
2019-01-31T07:35:30.202Z,74.95
2019-01-31T07:37:57.836Z,74.92
2019-01-31T07:40:25.749Z,74.74
2019-01-31T07:42:54.639Z,74.59
2019-01-31T07:45:22.279Z,74.72
2019-01-31T07:47:50.277Z,74.63
2019-01-31T07:50:17.916Z,74.53
2019-01-31T07:52:45.800Z,74.45
2019-01-31T07:55:13.431Z,74.00
2019-01-31T07:57:41.055Z,73.87
2019-01-31T08:00:08.993Z,73.87
2019-01-31T08:02:36.967Z,73.94
2019-01-31T08:05:04.930Z,73.39
2019-01-31T08:07:32.900Z,72.99
2019-01-31T08:10:00.870Z,72.87
2019-01-31T08:12:28.511Z,72.71
2019-01-31T08:14:56.404Z,72.81
2019-01-31T08:17:24.373Z,73.03
2019-01-31T08:19:52.343Z,72.96
2019-01-31T08:22:20.023Z,72.99
2019-01-31T08:24:47.971Z,72.58
2019-01-31T08:27:15.942Z,71.85
2019-01-31T08:29:43.913Z,71.51
2019-01-31T08:32:11.530Z,71.93
2019-01-31T08:34:39.460Z,71.93
2019-01-31T08:37:07.089Z,71.75
2019-01-31T08:39:34.717Z,71.80
2019-01-31T08:42:03.824Z,71.83
2019-01-31T08:44:31.654Z,71.34
2019-01-31T08:46:59.271Z,71.11
2019-01-31T08:49:26.898Z,70.60
2019-01-31T08:51:54.818Z,70.23
2019-01-31T08:54:22.459Z,70.12
2019-01-31T08:56:50.362Z,69.33
2019-01-31T08:59:18.330Z,69.09
2019-01-31T09:01:46.287Z,68.91
2019-01-31T09:04:14.258Z,68.56
2019-01-31T09:06:41.882Z,68.18
2019-01-31T09:09:09.507Z,68.01
2019-01-31T09:11:37.139Z,67.66
2019-01-31T09:14:05.418Z,67.48
2019-01-31T09:16:33.388Z,67.71
2019-01-31T09:19:04.053Z,67.74
2019-01-31T09:21:30.753Z,67.44
2019-01-31T09:23:58.384Z,67.22
2019-01-31T09:26:26.289Z,66.94
2019-01-31T09:28:54.257Z,66.36
2019-01-31T09:31:22.233Z,66.24
2019-01-31T09:33:49.874Z,65.86
2019-01-31T09:36:17.504Z,66.04
2019-01-31T09:38:45.439Z,65.69
2019-01-31T09:41:13.392Z,64.67
2019-01-31T09:43:41.365Z,65.04
2019-01-31T09:46:08.990Z,64.99
2019-01-31T09:48:36.891Z,64.50
2019-01-31T09:51:04.861Z,64.96
2019-01-31T09:53:32.831Z,64.75
2019-01-31T09:56:00.814Z,64.93
2019-01-31T09:58:28.443Z,64.94
2019-01-31T10:00:56.354Z,64.62
2019-01-31T10:03:24.302Z,64.53
2019-01-31T10:05:51.934Z,63.46
2019-01-31T10:08:19.561Z,62.92
2019-01-31T10:10:47.566Z,62.92
2019-01-31T10:13:15.354Z,61.87
2019-01-31T10:15:43.361Z,61.96
2019-01-31T10:18:11.378Z,62.48
2019-01-31T10:20:39.125Z,62.28
2019-01-31T10:23:06.770Z,62.52
2019-01-31T10:25:35.828Z,61.97
2019-01-31T10:28:03.790Z,61.64
2019-01-31T10:30:31.783Z,60.98
2019-01-31T10:32:59.729Z,60.96
2019-01-31T10:35:27.366Z,60.96
2019-01-31T10:37:55.008Z,61.16
2019-01-31T10:40:22.931Z,60.77
2019-01-31T10:42:52.362Z,60.59
2019-01-31T10:45:22.800Z,59.40
2019-01-31T10:47:49.340Z,59.46
2019-01-31T10:50:16.976Z,59.28
2019-01-31T10:52:44.923Z,58.78
2019-01-31T10:55:12.561Z,58.68
2019-01-31T10:57:40.559Z,58.18
2019-01-31T11:00:14.442Z,58.34
2019-01-31T11:02:42.340Z,58.43
2019-01-31T11:05:10.317Z,58.43
2019-01-31T11:07:38.267Z,58.56
2019-01-31T11:10:06.258Z,58.59
2019-01-31T11:12:34.205Z,58.24
2019-01-31T11:15:01.903Z,57.57
2019-01-31T11:17:29.525Z,58.16
2019-01-31T11:19:57.520Z,58.26
2019-01-31T11:22:25.582Z,58.03
2019-01-31T11:24:53.214Z,58.28
2019-01-31T11:27:21.103Z,57.87
2019-01-31T11:29:48.732Z,58.06
2019-01-31T11:32:16.627Z,57.28
2019-01-31T11:34:44.622Z,57.49
2019-01-31T11:37:12.300Z,56.70
2019-01-31T11:39:40.242Z,56.98
2019-01-31T11:42:07.859Z,57.09
2019-01-31T11:44:37.962Z,56.16
2019-01-31T11:47:05.091Z,57.30
2019-01-31T11:49:33.035Z,56.83
2019-01-31T11:52:01.022Z,57.26
2019-01-31T11:54:28.650Z,57.15
2019-01-31T11:57:05.328Z,56.91
2019-01-31T11:59:25.936Z,56.59
2019-01-31T12:01:53.905Z,56.37
2019-01-31T12:04:21.526Z,56.45
2019-01-31T12:06:49.152Z,56.23
2019-01-31T12:09:17.096Z,55.44
2019-01-31T12:11:45.069Z,56.29
2019-01-31T12:14:13.033Z,56.10
2019-01-31T12:16:41.008Z,56.25
2019-01-31T12:19:08.868Z,56.17
2019-01-31T12:21:36.507Z,55.67
2019-01-31T12:24:04.403Z,55.75
2019-01-31T12:26:32.034Z,55.46
2019-01-31T12:28:59.927Z,55.24
2019-01-31T12:31:27.554Z,54.39
2019-01-31T12:33:55.462Z,54.97
2019-01-31T12:36:23.086Z,55.65
2019-01-31T12:38:50.701Z,55.62
2019-01-31T12:41:18.653Z,54.68
2019-01-31T12:43:46.624Z,54.74
2019-01-31T12:46:14.596Z,55.69
2019-01-31T12:48:42.566Z,55.16
2019-01-31T12:51:10.539Z,55.46
2019-01-31T12:53:38.505Z,55.56
2019-01-31T12:56:06.472Z,55.65
2019-01-31T12:58:34.117Z,56.21
2019-01-31T13:01:02.001Z,56.08
2019-01-31T13:03:29.971Z,56.39
2019-01-31T13:05:57.602Z,56.80
2019-01-31T13:08:25.225Z,56.03
2019-01-31T13:10:52.840Z,55.68
2019-01-31T13:13:20.727Z,55.87
2019-01-31T13:15:48.586Z,55.74
2019-01-31T13:18:16.208Z,55.74
2019-01-31T13:20:43.834Z,56.00
2019-01-31T13:23:11.444Z,56.54
2019-01-31T13:25:39.063Z,56.83
2019-01-31T13:28:06.677Z,57.01
2019-01-31T13:30:34.301Z,56.74
2019-01-31T13:33:02.232Z,56.16
2019-01-31T13:35:30.199Z,56.11
2019-01-31T13:37:58.169Z,56.12
2019-01-31T13:40:26.143Z,55.15
2019-01-31T13:42:54.099Z,55.59
2019-01-31T13:45:21.712Z,54.75
2019-01-31T13:47:49.747Z,54.93
2019-01-31T13:50:17.709Z,55.37
2019-01-31T13:52:45.681Z,55.25
2019-01-31T13:55:13.297Z,55.43
2019-01-31T13:57:40.925Z,55.54
2019-01-31T14:00:08.981Z,55.27
2019-01-31T14:02:36.614Z,55.23
2019-01-31T14:05:04.504Z,55.26
2019-01-31T14:07:32.125Z,55.04
2019-01-31T14:10:00.035Z,55.11
2019-01-31T14:12:28.002Z,54.71
2019-01-31T14:14:55.624Z,54.69
2019-01-31T14:17:23.550Z,54.84
2019-01-31T14:19:51.500Z,54.82
2019-01-31T14:22:19.469Z,56.20
2019-01-31T14:24:47.437Z,54.94
2019-01-31T14:27:15.070Z,55.11
2019-01-31T14:29:42.701Z,55.15
2019-01-31T14:32:10.637Z,55.25
2019-01-31T14:34:38.600Z,55.59
2019-01-31T14:37:06.568Z,56.03
2019-01-31T14:39:34.535Z,55.71
2019-01-31T14:42:02.203Z,55.50
2019-01-31T14:44:30.069Z,55.92
2019-01-31T14:46:57.713Z,56.18
2019-01-31T14:49:25.379Z,55.99
2019-01-31T14:51:53.365Z,56.13
2019-01-31T14:54:21.236Z,56.46
2019-01-31T14:56:48.866Z,57.44
2019-01-31T14:59:16.763Z,58.34
2019-01-31T15:01:44.727Z,59.12
2019-01-31T15:04:12.701Z,59.42
2019-01-31T15:06:40.334Z,59.80
2019-01-31T15:09:08.782Z,60.14
2019-01-31T15:11:36.813Z,60.49
2019-01-31T15:14:04.437Z,59.10
2019-01-31T15:16:32.341Z,58.44
2019-01-31T15:19:00.314Z,58.21
2019-01-31T15:21:27.940Z,59.02
2019-01-31T15:23:55.576Z,58.75
2019-01-31T15:26:23.506Z,58.45
2019-01-31T15:28:51.476Z,59.29
2019-01-31T15:31:19.439Z,59.74
2019-01-31T15:33:47.071Z,59.43
2019-01-31T15:36:14.981Z,59.93
2019-01-31T15:38:42.620Z,58.88
2019-01-31T15:41:10.233Z,58.92
2019-01-31T15:43:38.168Z,59.10
2019-01-31T15:46:05.810Z,59.13
2019-01-31T15:48:33.694Z,58.98
2019-01-31T15:51:01.669Z,58.71
2019-01-31T15:53:29.637Z,59.12
2019-01-31T15:55:57.258Z,58.84
2019-01-31T15:58:25.167Z,58.99
2019-01-31T16:00:52.799Z,59.26
2019-01-31T16:03:20.819Z,59.41
2019-01-31T16:05:48.436Z,59.33
2019-01-31T16:08:16.633Z,60.62
2019-01-31T16:10:44.298Z,59.82
2019-01-31T16:13:12.177Z,60.26
2019-01-31T16:15:39.802Z,61.01
2019-01-31T16:18:07.694Z,60.60
2019-01-31T16:20:35.676Z,60.53
2019-01-31T16:23:03.300Z,60.52
2019-01-31T16:25:31.201Z,60.50
2019-01-31T16:27:58.839Z,61.47
2019-01-31T16:30:26.644Z,61.58
2019-01-31T16:32:54.590Z,61.28
2019-01-31T16:35:22.561Z,61.28
2019-01-31T16:37:50.531Z,62.04
2019-01-31T16:40:18.164Z,61.51
2019-01-31T16:42:46.058Z,61.63
2019-01-31T16:45:14.031Z,61.31
2019-01-31T16:47:41.746Z,61.36
2019-01-31T16:50:09.381Z,61.38
2019-01-31T16:52:37.026Z,62.01
2019-01-31T16:55:04.985Z,61.86
2019-01-31T16:57:33.268Z,61.39
2019-01-31T17:00:01.334Z,61.75
2019-01-31T17:02:28.959Z,62.73
2019-01-31T17:04:56.580Z,61.97
2019-01-31T17:07:24.525Z,62.13
2019-01-31T17:09:52.153Z,62.09
2019-01-31T17:12:19.785Z,62.50
2019-01-31T17:14:47.410Z,62.00
2019-01-31T17:17:15.045Z,61.98
2019-01-31T17:19:42.673Z,61.80
2019-01-31T17:22:10.300Z,62.01
2019-01-31T17:24:38.269Z,62.30
2019-01-31T17:27:06.239Z,62.81
2019-01-31T17:29:34.205Z,62.41
2019-01-31T17:32:02.176Z,62.65
2019-01-31T17:34:30.146Z,63.37
2019-01-31T17:36:58.115Z,63.67
2019-01-31T17:39:25.749Z,63.87
2019-01-31T17:41:53.664Z,64.27
2019-01-31T17:44:21.290Z,64.55
2019-01-31T17:46:48.907Z,64.66
2019-01-31T17:49:16.552Z,64.71
2019-01-31T17:51:44.503Z,64.55
2019-01-31T17:54:12.139Z,64.70
2019-01-31T17:56:40.024Z,64.80
2019-01-31T17:59:07.997Z,65.12
2019-01-31T18:01:36.173Z,65.60
2019-01-31T18:04:04.143Z,65.51
2019-01-31T18:06:32.117Z,65.74
2019-01-31T18:08:59.750Z,66.00
2019-01-31T18:11:27.369Z,66.37
2019-01-31T18:13:55.301Z,66.50
2019-01-31T18:16:23.267Z,66.56
2019-01-31T18:18:50.918Z,66.81
2019-01-31T18:21:18.801Z,67.08
2019-01-31T18:23:46.519Z,67.29
2019-01-31T18:26:14.443Z,67.30
2019-01-31T18:28:42.068Z,67.53
2019-01-31T18:31:09.982Z,68.08
2019-01-31T18:33:37.935Z,68.35
2019-01-31T18:36:05.904Z,68.21
2019-01-31T18:38:33.890Z,68.47
2019-01-31T18:41:01.516Z,68.70
2019-01-31T18:43:29.143Z,68.58
2019-01-31T18:45:57.071Z,68.91
2019-01-31T18:48:25.041Z,68.82
2019-01-31T18:50:53.016Z,69.35
2019-01-31T18:53:20.636Z,69.68
2019-01-31T18:55:48.274Z,69.78
2019-01-31T18:58:15.904Z,70.01
2019-01-31T19:00:43.957Z,69.84
2019-01-31T19:03:11.932Z,70.26
2019-01-31T19:05:39.571Z,70.09
2019-01-31T19:08:09.062Z,70.29
2019-01-31T19:10:43.212Z,70.65
2019-01-31T19:13:06.182Z,70.89
2019-01-31T19:15:34.159Z,70.23
2019-01-31T19:18:06.192Z,71.01
2019-01-31T19:20:31.726Z,71.30
2019-01-31T19:22:59.349Z,71.82
2019-01-31T19:25:27.349Z,71.92
2019-01-31T19:27:54.974Z,71.71
2019-01-31T19:30:22.871Z,71.92
2019-01-31T19:32:50.743Z,71.81
2019-01-31T19:35:18.710Z,71.73
2019-01-31T19:37:46.700Z,71.96
2019-01-31T19:40:14.652Z,71.90
2019-01-31T19:42:42.273Z,71.94
2019-01-31T19:45:10.183Z,72.52
2019-01-31T19:47:38.166Z,72.23
2019-01-31T19:50:06.118Z,72.52
2019-01-31T19:52:34.087Z,72.66
2019-01-31T19:55:02.061Z,72.64
2019-01-31T19:57:30.019Z,72.56
2019-01-31T19:59:57.999Z,73.03
2019-01-31T20:02:25.966Z,73.12
2019-01-31T20:04:53.938Z,73.10
2019-01-31T20:07:21.568Z,73.18
2019-01-31T20:09:49.271Z,72.84
2019-01-31T20:12:16.888Z,73.26
2019-01-31T20:14:44.532Z,73.23
2019-01-31T20:17:12.157Z,73.53
2019-01-31T20:19:40.114Z,73.60
2019-01-31T20:22:08.088Z,73.57
2019-01-31T20:24:36.058Z,73.80
2019-01-31T20:27:04.330Z,73.67
2019-01-31T20:29:32.301Z,73.45
2019-01-31T20:31:59.934Z,73.47
2019-01-31T20:34:27.831Z,73.64
2019-01-31T20:36:55.795Z,73.37
2019-01-31T20:39:23.775Z,73.70
2019-01-31T20:41:54.199Z,73.49
2019-01-31T20:44:21.357Z,73.73
2019-01-31T20:46:49.317Z,73.72
2019-01-31T20:49:16.934Z,73.86
2019-01-31T20:51:44.641Z,74.10
2019-01-31T20:54:12.346Z,74.14
2019-01-31T20:56:40.274Z,73.89
2019-01-31T20:59:07.892Z,74.01
2019-01-31T21:01:35.799Z,73.72
2019-01-31T21:04:03.423Z,73.78
2019-01-31T21:06:41.169Z,74.06
2019-01-31T21:09:00.672Z,74.27
2019-01-31T21:11:28.605Z,74.51
2019-01-31T21:13:56.581Z,74.53
2019-01-31T21:16:24.213Z,74.56
2019-01-31T21:18:51.831Z,74.36
2019-01-31T21:21:19.457Z,74.83
2019-01-31T21:23:47.425Z,75.22
2019-01-31T21:26:15.418Z,75.00
2019-01-31T21:28:43.375Z,74.74
2019-01-31T21:31:11.344Z,74.49
2019-01-31T21:33:39.308Z,74.70
2019-01-31T21:36:07.274Z,74.85
2019-01-31T21:38:34.898Z,74.90
2019-01-31T21:41:02.537Z,75.14
2019-01-31T21:43:30.161Z,74.83
2019-01-31T21:45:57.786Z,75.00
2019-01-31T21:48:25.406Z,75.01
2019-01-31T21:50:53.371Z,74.92
2019-01-31T21:53:21.330Z,74.94
2019-01-31T21:55:49.023Z,75.08
2019-01-31T21:58:16.851Z,74.98
2019-01-31T22:00:44.558Z,74.93
2019-01-31T22:03:12.501Z,74.99
2019-01-31T22:05:40.451Z,75.06
2019-01-31T22:08:08.076Z,74.85
2019-01-31T22:10:35.679Z,75.03
2019-01-31T22:13:03.386Z,75.09
2019-01-31T22:15:31.313Z,75.12
2019-01-31T22:18:00.395Z,74.89
2019-01-31T22:20:28.678Z,74.92
2019-01-31T22:22:56.302Z,74.85
2019-01-31T22:25:23.933Z,74.63
2019-01-31T22:27:51.568Z,74.65
2019-01-31T22:30:19.535Z,74.43
2019-01-31T22:32:47.509Z,74.63
2019-01-31T22:35:15.476Z,74.34
2019-01-31T22:37:43.751Z,74.12
2019-01-31T22:40:11.717Z,74.20
2019-01-31T22:42:39.688Z,73.91
2019-01-31T22:45:07.677Z,73.98
2019-01-31T22:47:35.628Z,73.56
2019-01-31T22:50:03.492Z,73.48
2019-01-31T22:52:31.142Z,73.26
2019-01-31T22:54:59.041Z,73.15
2019-01-31T22:57:26.675Z,73.04
2019-01-31T22:59:54.297Z,72.85
2019-01-31T23:02:22.236Z,72.51
2019-01-31T23:04:49.862Z,72.25
2019-01-31T23:07:17.491Z,72.53
2019-01-31T23:09:45.526Z,72.37
2019-01-31T23:12:13.488Z,72.46
2019-01-31T23:14:41.449Z,72.46
2019-01-31T23:17:09.075Z,71.96
2019-01-31T23:19:36.700Z,72.16
2019-01-31T23:22:04.644Z,71.95
2019-01-31T23:24:32.530Z,72.07
2019-01-31T23:27:00.494Z,72.05
2019-01-31T23:29:28.173Z,71.89
2019-01-31T23:31:55.811Z,71.93
2019-01-31T23:34:23.430Z,71.98
2019-01-31T23:36:51.338Z,71.82
2019-01-31T23:39:19.330Z,72.13
2019-01-31T23:41:47.275Z,72.00
2019-01-31T23:44:15.247Z,71.95
2019-01-31T23:46:43.212Z,72.43
2019-01-31T23:49:10.838Z,72.35
2019-01-31T23:51:38.743Z,72.00
2019-01-31T23:54:06.372Z,72.08
2019-01-31T23:56:34.276Z,72.24
2019-01-31T23:59:02.250Z,72.44
